Time;durP1;ratioP1;P1;durP2;ratioP2;P2;SDS_P1;SDS_P2;PMS_P1;PMS_P2;Temp;Humidity;BMP_temperature;BMP_pressure;BME280_temperature;BME280_humidity;BME280_pressure;Samples;Min_cycle;Max_cycle;Signal;HPM_P1;HPM_P2
2022/08/20 00:00:13;;;;;;;7.45;2.35;;;16.50;1.40;;;17.24;100.00;95281.29;646329;216;31486;-71
2022/08/20 00:02:55;;;;;;;2.62;2.42;;;16.50;1.40;;;17.18;100.00;95279.26;645674;216;31622;-71
2022/08/20 00:05:37;;;;;;;4.18;1.50;;;16.50;1.40;;;17.19;100.00;95273.91;645770;212;31477;-71
2022/08/20 00:08:19;;;;;;;2.60;2.40;;;16.50;1.40;;;17.21;100.00;95273.84;647016;216;31589;-71
2022/08/20 00:11:01;;;;;;;1.75;1.30;;;16.50;1.40;;;17.22;100.00;95277.99;618450;222;31818;-72
2022/08/20 00:13:42;;;;;;;1.50;1.40;;;16.50;1.40;;;17.25;100.00;95281.13;646903;216;31459;-72
2022/08/20 00:16:24;;;;;;;1.20;1.10;;;16.60;1.40;;;17.23;100.00;95279.52;638528;216;31749;-72
2022/08/20 00:19:05;;;;;;;2.90;2.35;;;16.50;1.40;;;17.24;100.00;95274.87;645701;216;31519;-71
2022/08/20 00:21:47;;;;;;;2.90;2.70;;;16.50;1.40;;;17.21;100.00;95275.94;646266;216;31507;-71
2022/08/20 00:24:29;;;;;;;1.95;1.85;;;16.60;1.40;;;17.21;100.00;95277.41;647032;212;42164;-71
2022/08/20 00:27:10;;;;;;;3.53;2.55;;;16.60;1.40;;;17.22;100.00;95282.02;646339;212;31598;-70
2022/08/20 00:29:52;;;;;;;4.28;1.77;;;16.60;1.40;;;17.25;100.00;95279.97;647551;216;32882;-70
2022/08/20 00:32:42;;;;;;;3.10;2.80;;;16.60;1.40;;;17.25;100.00;95276.44;645076;212;31503;-70
2022/08/20 00:35:51;;;;;;;2.30;2.10;;;16.60;1.40;;;17.31;100.00;95279.53;647019;216;42193;-72
2022/08/20 00:38:33;;;;;;;2.87;2.35;;;16.60;1.40;;;17.31;100.00;95289.27;642300;216;42495;-71
2022/08/20 00:41:19;;;;;;;3.28;2.90;;;16.60;1.40;;;17.34;100.00;95289.12;646442;216;31517;-71
2022/08/20 00:44:06;;;;;;;6.15;4.00;;;16.60;1.40;;;17.33;100.00;95293.55;646673;216;31568;-70
2022/08/20 00:46:50;;;;;;;2.72;2.10;;;16.60;1.40;;;17.32;100.00;95296.27;646151;216;31639;-71
2022/08/20 00:49:34;;;;;;;3.17;2.55;;;16.50;1.40;;;17.31;100.00;95288.20;644946;216;32154;-72
2022/08/20 00:52:16;;;;;;;3.42;3.12;;;16.50;1.40;;;17.28;100.00;95289.48;646000;216;42208;-71
2022/08/20 00:54:57;;;;;;;5.97;2.95;;;16.50;1.40;;;17.24;100.00;95293.16;646380;216;31521;-71
2022/08/20 00:57:41;;;;;;;2.37;2.25;;;16.50;1.40;;;17.24;100.00;95287.50;647512;216;32112;-72
2022/08/20 01:00:26;;;;;;;3.62;2.37;;;16.50;1.40;;;17.23;100.00;95285.23;646885;216;31623;-70
2022/08/20 01:03:08;;;;;;;3.58;2.62;;;16.50;1.40;;;17.19;100.00;95288.83;646815;212;31548;-71
2022/08/20 01:05:50;;;;;;;2.75;1.62;;;16.50;1.40;;;17.21;100.00;95280.54;644948;213;31848;-70
2022/08/20 01:08:31;;;;;;;3.65;3.35;;;16.50;1.40;;;17.19;100.00;95280.00;646833;216;32094;-71
2022/08/20 01:11:16;;;;;;;6.15;4.03;;;16.40;1.40;;;17.15;100.00;95283.48;618391;222;31939;-70
2022/08/20 01:13:58;;;;;;;3.25;3.03;;;16.40;1.40;;;17.14;100.00;95279.94;646854;216;31676;-71
2022/08/20 01:16:40;;;;;;;2.40;2.00;;;16.40;1.40;;;17.09;100.00;95280.27;636453;216;33158;-72
2022/08/20 01:19:23;;;;;;;1.67;1.45;;;16.40;1.40;;;17.02;100.00;95277.41;645317;216;31638;-71
2022/08/20 01:23:25;;;;;;;4.18;3.42;;;16.30;1.40;;;17.00;100.00;95282.12;646525;212;31533;-71
2022/08/20 01:24:47;;;;;;;5.15;2.33;;;16.30;1.40;;;17.02;100.00;95280.56;646754;216;31549;-70
2022/08/20 01:27:29;;;;;;;3.35;2.65;;;16.30;1.40;;;16.99;100.00;95283.92;645816;212;31586;-73
2022/08/20 01:30:11;;;;;;;1.83;1.73;;;16.30;1.40;;;17.01;100.00;95289.11;646715;216;31554;-70
2022/08/20 01:32:52;;;;;;;2.08;1.90;;;16.30;1.40;;;16.97;100.00;95291.59;646071;216;31559;-71
2022/08/20 01:35:51;;;;;;;2.60;2.40;;;16.30;1.40;;;16.95;100.00;95289.25;646072;212;31589;-70
2022/08/20 01:38:33;;;;;;;3.78;2.53;;;16.30;1.40;;;16.93;100.00;95288.05;619820;222;31909;-71
2022/08/20 01:41:26;;;;;;;2.33;2.12;;;16.30;1.40;;;16.96;100.00;95293.89;618319;222;32051;-71
2022/08/20 01:44:08;;;;;;;3.58;2.67;;;16.30;1.40;;;16.93;100.00;95288.66;647133;216;31518;-71
2022/08/20 01:46:49;;;;;;;1.20;1.10;;;16.20;1.40;;;16.90;100.00;95293.92;620315;222;31854;-71
2022/08/20 01:49:36;;;;;;;4.87;4.05;;;16.20;1.40;;;16.88;100.00;95295.47;646416;215;31602;-74
2022/08/20 01:54:54;;;;;;;3.15;2.85;;;16.10;1.40;;;16.87;100.00;95296.45;647369;212;31531;-71
2022/08/20 01:57:40;;;;;;;2.35;2.15;;;16.10;1.40;;;16.88;100.00;95297.03;647180;216;31606;-71
2022/08/20 02:00:25;;;;;;;2.37;1.92;;;16.10;1.40;;;16.88;100.00;95299.62;646484;212;31598;-72
2022/08/20 02:03:07;;;;;;;3.30;2.78;;;16.00;1.40;;;16.87;100.00;95299.94;647037;216;31576;-72
2022/08/20 02:05:52;;;;;;;3.20;2.90;;;16.00;1.40;;;16.87;100.00;95303.27;645972;216;32094;-72
2022/08/20 02:08:33;;;;;;;3.20;2.70;;;16.00;1.40;;;16.88;100.00;95310.62;645835;216;31611;-71
2022/08/20 02:11:15;;;;;;;3.00;2.60;;;16.00;1.40;;;16.86;100.00;95311.52;646865;216;31550;-72
2022/08/20 02:13:57;;;;;;;3.90;1.70;;;16.00;1.40;;;16.84;100.00;95314.88;646729;216;31856;-73
2022/08/20 02:16:39;;;;;;;2.20;2.00;;;16.00;1.40;;;16.82;100.00;95312.81;635960;216;31671;-72
2022/08/20 02:19:20;;;;;;;2.72;2.30;;;16.00;1.40;;;16.85;100.00;95309.55;646561;216;31560;-72
2022/08/20 02:22:02;;;;;;;2.17;2.08;;;16.10;1.40;;;16.84;100.00;95315.05;646884;212;31665;-72
2022/08/20 02:24:43;;;;;;;3.28;3.08;;;16.10;1.40;;;16.88;100.00;95316.17;647227;212;31562;-71
2022/08/20 02:27:25;;;;;;;2.42;2.33;;;16.00;1.40;;;16.86;100.00;95314.27;646951;216;31531;-71
2022/08/20 02:30:10;;;;;;;3.28;2.95;;;16.00;1.40;;;16.85;100.00;95309.22;646846;212;31657;-71
2022/08/20 02:32:49;;;;;;;1.95;1.85;;;16.00;1.40;;;16.82;100.00;95308.09;646793;216;31529;-71
2022/08/20 02:35:51;;;;;;;2.42;2.05;;;16.00;1.40;;;16.85;100.00;95312.25;648004;216;31633;-72
2022/08/20 02:38:33;;;;;;;3.58;3.22;;;16.00;1.40;;;16.81;100.00;95314.37;644814;216;31582;-72
2022/08/20 02:43:50;;;;;;;2.70;2.50;;;16.00;1.40;;;16.83;100.00;95312.36;646198;216;31635;-72
2022/08/20 02:46:31;;;;;;;3.62;3.30;;;16.00;1.40;;;16.79;100.00;95309.31;647089;212;32277;-72
2022/08/20 02:49:12;;;;;;;4.72;3.05;;;16.00;1.40;;;16.84;100.00;95308.27;646014;216;31519;-72
2022/08/20 02:51:54;;;;;;;2.00;1.75;;;16.00;1.40;;;16.82;100.00;95305.91;646877;216;31528;-71
2022/08/20 02:54:36;;;;;;;3.22;3.03;;;16.00;1.40;;;16.81;100.00;95303.28;646631;216;32000;-71
2022/08/20 02:57:19;;;;;;;3.92;3.53;;;15.90;1.40;;;16.82;100.00;95303.37;647570;216;31533;-71
2022/08/20 03:00:02;;;;;;;0.93;0.65;;;15.90;1.40;;;16.80;100.00;95306.40;645856;212;32059;-71
2022/08/20 03:02:44;;;;;;;3.55;3.25;;;15.90;1.40;;;16.80;100.00;95307.46;646919;212;31565;-72
2022/08/20 03:05:25;;;;;;;4.07;3.83;;;15.90;1.40;;;16.81;100.00;95305.75;619950;222;31854;-72
2022/08/20 03:08:07;;;;;;;3.25;3.05;;;15.90;1.40;;;16.78;100.00;95309.47;646774;216;32151;-71
2022/08/20 03:10:49;;;;;;;2.60;2.42;;;15.90;1.40;;;16.75;100.00;95301.85;645510;212;31530;-71
2022/08/20 03:13:31;;;;;;;2.25;1.80;;;15.90;1.40;;;16.76;100.00;95301.53;647166;216;31548;-71
2022/08/20 03:16:12;;;;;;;2.70;1.92;;;15.90;1.40;;;16.73;100.00;95304.20;647234;216;32114;-71
2022/08/20 03:18:54;;;;;;;1.77;1.67;;;15.90;1.40;;;16.71;100.00;95308.91;645930;212;31584;-71
2022/08/20 03:21:36;;;;;;;1.33;1.30;;;15.90;1.40;;;16.70;100.00;95308.13;646970;216;31564;-72
2022/08/20 03:24:17;;;;;;;1.73;1.62;;;15.90;1.40;;;16.69;100.00;95307.75;618814;226;32010;-71
2022/08/20 03:26:59;;;;;;;1.62;1.52;;;15.90;1.40;;;16.68;100.00;95315.34;646278;216;31900;-71
2022/08/20 03:29:41;;;;;;;1.10;1.02;;;15.90;1.40;;;16.70;100.00;95318.05;647247;212;31516;-71
2022/08/20 03:32:23;;;;;;;3.08;2.78;;;15.90;1.40;;;16.69;100.00;95319.66;647497;216;31528;-71
2022/08/20 03:35:51;;;;;;;2.22;2.05;;;15.90;1.40;;;16.74;100.00;95322.22;647410;216;31584;-71
2022/08/20 03:38:33;;;;;;;3.15;2.95;;;15.90;1.40;;;16.71;100.00;95325.83;646941;216;31526;-71
2022/08/20 03:41:17;;;;;;;3.40;3.20;;;15.90;1.40;;;16.73;100.00;95323.87;645692;216;31545;-71
2022/08/20 03:43:59;;;;;;;3.03;2.72;;;15.90;1.40;;;16.71;100.00;95326.32;647728;212;31546;-70
2022/08/20 03:46:41;;;;;;;2.45;2.03;;;15.90;1.40;;;16.68;100.00;95326.47;646169;216;31983;-71
2022/08/20 03:49:23;;;;;;;3.72;3.37;;;15.80;1.40;;;16.67;100.00;95328.35;646141;216;31525;-71
2022/08/20 03:52:04;;;;;;;2.37;2.08;;;15.80;1.40;;;16.69;100.00;95332.34;647850;212;31585;-71
2022/08/20 03:54:46;;;;;;;3.42;2.42;;;15.80;1.40;;;16.70;100.00;95336.42;646943;216;31649;-71
2022/08/20 03:57:28;;;;;;;2.00;1.90;;;15.80;1.40;;;16.68;100.00;95340.84;647977;216;31557;-72
2022/08/20 04:00:12;;;;;;;3.15;2.95;;;15.80;1.40;;;16.69;100.00;95343.34;651453;216;31575;-72
2022/08/20 04:02:54;;;;;;;3.33;2.78;;;15.80;1.40;;;16.69;100.00;95345.28;652642;216;31811;-71
2022/08/20 04:05:38;;;;;;;2.47;2.28;;;15.80;1.40;;;16.69;100.00;95342.36;649188;216;31517;-71
2022/08/20 04:08:17;;;;;;;2.50;2.30;;;15.80;1.40;;;16.67;100.00;95343.25;650514;216;31547;-71
2022/08/20 04:10:58;;;;;;;1.70;1.20;;;15.80;1.40;;;16.68;100.00;95342.77;643649;216;32183;-71
2022/08/20 04:13:39;;;;;;;2.22;2.03;;;15.80;1.40;;;16.69;100.00;95344.42;616051;226;32060;-72
2022/08/20 04:16:21;;;;;;;2.97;2.78;;;15.80;1.40;;;16.68;100.00;95346.75;645876;216;31709;-72
2022/08/20 04:20:17;;;;;;;2.78;2.53;;;15.80;1.40;;;16.67;100.00;95351.05;647056;216;31588;-72
2022/08/20 04:23:00;;;;;;;2.97;2.75;;;15.80;1.40;;;16.67;100.00;95358.53;648281;212;31567;-72
2022/08/20 04:25:42;;;;;;;4.40;2.60;;;15.80;1.40;;;16.68;100.00;95357.84;648046;216;31572;-72
2022/08/20 04:28:29;;;;;;;3.35;3.05;;;15.80;1.40;;;16.67;100.00;95360.75;648466;216;31496;-71
2022/08/20 04:31:12;;;;;;;3.92;2.35;;;15.80;1.40;;;16.66;100.00;95359.61;644312;212;32075;-71
2022/08/20 04:35:51;;;;;;;2.58;2.15;;;15.80;1.40;;;16.64;100.00;95355.41;647073;216;31973;-71
2022/08/20 04:38:33;;;;;;;3.80;2.58;;;15.80;1.40;;;16.67;100.00;95358.61;650286;216;31480;-72
2022/08/20 04:41:17;;;;;;;2.55;2.40;;;15.80;1.40;;;16.67;100.00;95359.97;647051;216;31553;-73
2022/08/20 04:44:00;;;;;;;2.30;2.10;;;15.80;1.40;;;16.69;100.00;95365.28;647874;216;31581;-73
2022/08/20 04:46:41;;;;;;;2.95;1.92;;;15.80;1.40;;;16.68;100.00;95365.97;626920;222;32692;-71
2022/08/20 04:49:25;;;;;;;2.30;2.20;;;15.80;1.40;;;16.69;100.00;95367.20;649671;216;31666;-72
2022/08/20 04:52:04;;;;;;;2.15;2.05;;;15.80;1.40;;;16.66;100.00;95368.89;654984;216;31534;-72
2022/08/20 04:54:46;;;;;;;3.17;2.80;;;15.80;1.40;;;16.69;100.00;95370.45;647933;212;31566;-71
2022/08/20 04:57:28;;;;;;;5.05;3.10;;;15.80;1.40;;;16.68;100.00;95375.17;646992;216;31579;-72
2022/08/20 05:00:14;;;;;;;3.50;3.30;;;15.80;1.40;;;16.67;100.00;95375.53;647045;212;31556;-73
2022/08/20 05:02:55;;;;;;;1.65;1.55;;;15.80;1.40;;;16.67;100.00;95372.20;643599;212;32144;-72
2022/08/20 05:08:11;;;;;;;2.87;2.67;;;15.80;1.40;;;16.68;100.00;95376.23;618078;226;31984;-72
2022/08/20 05:10:56;;;;;;;2.20;1.80;;;15.80;1.40;;;16.64;100.00;95381.31;630528;221;31710;-71
2022/08/20 05:13:37;;;;;;;0.88;0.88;;;15.90;1.40;;;16.72;100.00;95377.86;647086;216;31534;-72
2022/08/20 05:16:23;;;;;;;1.33;1.23;;;15.90;1.40;;;16.74;100.00;95375.53;649166;216;31540;-72
2022/08/20 05:19:04;;;;;;;2.72;2.53;;;15.90;1.40;;;16.76;100.00;95382.11;648615;216;31513;-72
2022/08/20 05:21:45;;;;;;;1.80;1.70;;;15.90;1.40;;;16.75;100.00;95381.82;652948;216;31576;-71
2022/08/20 05:24:27;;;;;;;2.33;1.65;;;15.90;1.40;;;16.73;100.00;95387.65;648596;216;31587;-71
2022/08/20 05:27:09;;;;;;;2.10;1.90;;;15.90;1.40;;;16.69;100.00;95380.19;646471;216;31568;-70
2022/08/20 05:29:53;;;;;;;2.50;2.30;;;15.90;1.40;;;16.71;100.00;95384.76;649642;216;31507;-72
2022/08/20 05:32:38;;;;;;;1.60;1.50;;;15.90;1.40;;;16.73;100.00;95391.22;649013;212;34412;-71
2022/08/20 05:35:51;;;;;;;1.45;1.35;;;15.90;1.40;;;16.74;100.00;95390.85;652853;216;31566;-70
2022/08/20 05:38:33;;;;;;;2.30;2.20;;;15.90;1.40;;;16.79;100.00;95390.80;650604;212;31585;-71
2022/08/20 05:41:14;;;;;;;1.37;1.27;;;16.00;1.40;;;16.77;100.00;95392.02;646002;212;32296;-71
2022/08/20 05:44:00;;;;;;;2.90;2.60;;;16.00;1.40;;;16.79;100.00;95393.80;647671;212;31496;-71
2022/08/20 05:46:42;;;;;;;3.50;3.03;;;16.00;1.40;;;16.79;100.00;95391.45;643177;212;31578;-70
2022/08/20 05:49:27;;;;;;;2.92;2.72;;;16.00;1.40;;;16.82;100.00;95393.98;652692;216;31568;-71
2022/08/20 05:52:09;;;;;;;3.50;3.30;;;16.00;1.40;;;16.82;100.00;95399.08;644234;216;31555;-70
2022/08/20 05:54:52;;;;;;;2.35;2.25;;;16.00;1.40;;;16.84;100.00;95401.27;647870;212;31543;-70
2022/08/20 05:57:35;;;;;;;2.15;1.98;;;16.00;1.40;;;16.87;100.00;95398.66;649508;216;31561;-70
2022/08/20 06:00:17;;;;;;;2.83;2.62;;;16.00;1.40;;;16.83;100.00;95405.66;650055;216;31619;-71
2022/08/20 06:05:54;;;;;;;1.37;1.27;;;16.00;1.40;;;16.93;100.00;95401.19;648958;216;31470;-71
2022/08/20 06:08:35;;;;;;;2.83;2.40;;;16.00;1.40;;;16.93;100.00;95403.53;645359;216;31572;-70
2022/08/20 06:11:17;;;;;;;3.10;2.90;;;16.10;1.40;;;16.99;100.00;95407.42;648546;216;31478;-70
2022/08/20 06:13:59;;;;;;;2.20;2.00;;;16.10;1.40;;;16.94;100.00;95406.54;648312;216;31928;-70
2022/08/20 06:16:40;;;;;;;2.00;1.80;;;16.10;1.40;;;17.01;100.00;95407.56;637164;212;31754;-71
2022/08/20 06:19:22;;;;;;;2.55;2.45;;;16.20;1.40;;;17.03;100.00;95410.50;645931;216;32099;-71
2022/08/20 06:22:04;;;;;;;1.70;1.40;;;16.20;1.40;;;16.99;100.00;95407.55;648412;216;31526;-71
2022/08/20 06:24:46;;;;;;;2.12;1.95;;;16.20;1.40;;;17.09;100.00;95413.45;647882;216;31496;-71
2022/08/20 06:27:27;;;;;;;1.80;1.70;;;16.30;1.40;;;17.13;100.00;95412.59;653255;212;31557;-71
2022/08/20 06:30:10;;;;;;;1.40;1.30;;;16.30;1.40;;;17.12;100.00;95415.80;649149;212;31514;-71
2022/08/20 06:32:51;;;;;;;1.70;1.60;;;16.20;1.40;;;17.21;100.00;95424.72;642667;216;31534;-71
2022/08/20 06:35:52;;;;;;;2.60;2.40;;;16.30;1.40;;;17.27;100.00;95425.58;649109;212;31574;-71
2022/08/20 06:38:33;;;;;;;1.45;1.35;;;16.30;1.40;;;17.31;100.00;95424.97;652779;216;31612;-71
2022/08/20 06:41:16;;;;;;;2.30;2.10;;;16.40;1.40;;;17.33;100.00;95423.62;647601;216;31490;-71
2022/08/20 06:43:57;;;;;;;2.00;1.60;;;16.50;1.40;;;17.38;100.00;95425.30;648733;216;31575;-71
2022/08/20 06:46:39;;;;;;;3.35;3.15;;;16.50;1.40;;;17.46;100.00;95419.78;650014;216;31568;-71
2022/08/20 06:49:20;;;;;;;2.10;1.98;;;16.60;1.40;;;17.54;100.00;95424.66;646673;212;31775;-71
2022/08/20 06:52:04;;;;;;;2.90;2.65;;;16.70;1.40;;;17.61;100.00;95425.59;650910;216;33078;-71
2022/08/20 06:54:46;;;;;;;2.22;2.03;;;16.80;1.40;;;17.65;100.00;95424.12;616991;226;32004;-71
2022/08/20 06:57:28;;;;;;;2.10;1.90;;;16.80;1.40;;;17.74;100.00;95428.25;649691;216;31900;-71
2022/08/20 07:00:11;;;;;;;3.15;2.42;;;16.90;1.40;;;17.84;100.00;95430.22;643958;212;31501;-72
2022/08/20 07:02:53;;;;;;;1.30;1.20;;;16.90;1.40;;;17.85;100.00;95433.38;650116;216;31536;-71
2022/08/20 07:05:35;;;;;;;2.85;1.92;;;16.90;1.40;;;17.85;100.00;95433.38;646726;216;31838;-71
2022/08/20 07:08:20;;;;;;;3.62;1.98;;;17.00;1.40;;;17.97;100.00;95432.84;647354;216;31492;-71
2022/08/20 07:11:02;;;;;;;2.50;2.40;;;17.10;1.40;;;18.11;100.00;95432.73;649517;216;32978;-73
2022/08/20 07:16:16;;;;;;;1.62;1.52;;;17.30;1.40;;;18.42;100.00;95436.42;636265;216;31709;-72
2022/08/20 07:18:58;;;;;;;3.10;1.67;;;17.30;1.40;;;18.57;100.00;95444.34;647054;212;32131;-72
2022/08/20 07:21:39;;;;;;;2.05;1.95;;;17.40;1.40;;;18.62;100.00;95439.44;647696;216;31581;-72
2022/08/20 07:24:24;;;;;;;1.30;1.20;;;17.40;1.40;;;18.76;100.00;95442.97;648247;216;32800;-72
2022/08/20 07:27:06;;;;;;;2.33;2.22;;;17.30;1.40;;;18.70;100.00;95447.30;618179;222;31843;-71
2022/08/20 07:32:35;;;;;;;1.40;1.30;;;17.30;1.40;;;18.60;100.00;95444.42;646690;215;31771;-70
2022/08/20 07:35:51;;;;;;;;;;;17.40;1.40;;;18.64;100.00;95447.83;652911;216;24822;-70
2022/08/20 07:38:33;;;;;;;;;;;17.40;1.40;;;18.68;100.00;95450.51;654254;212;24908;-69
2022/08/20 07:41:19;;;;;;;;;;;17.50;1.40;;;18.51;100.00;95453.28;654533;216;24812;-70
2022/08/20 07:44:01;;;;;;;;;;;17.40;1.40;;;18.60;100.00;95455.79;653784;216;24910;-70
2022/08/20 07:46:42;;;;;;;;;;;17.50;1.40;;;18.65;100.00;95463.20;652287;216;24704;-70
2022/08/20 07:49:23;;;;;;;;;;;17.50;1.40;;;18.79;100.00;95464.63;651934;216;25233;-70
2022/08/20 07:52:05;;;;;;;;;;;17.70;1.40;;;18.63;100.00;95463.69;655832;212;24836;-69
2022/08/20 07:54:46;;;;;;;;;;;17.50;1.40;;;18.53;100.00;95465.64;651171;212;24728;-70
2022/08/20 07:57:31;;;;;;;;;;;17.50;1.40;;;18.72;100.00;95466.13;651859;216;24894;-70
2022/08/20 08:00:12;;;;;;;;;;;17.70;1.40;;;18.76;100.00;95465.92;654961;212;24814;-70
2022/08/20 08:02:54;;;;;;;;;;;17.70;1.40;;;18.78;100.00;95466.58;653146;216;25246;-70
2022/08/20 08:05:37;;;;;;;;;;;17.70;1.40;;;18.82;100.00;95470.40;653991;216;24815;-70
2022/08/20 08:08:16;;;;;;;;;;;17.80;1.40;;;18.88;100.00;95470.44;651927;216;24893;-70
2022/08/20 08:10:58;;;;;;;;;;;17.80;1.40;;;18.63;100.00;95470.98;653831;216;24750;-70
2022/08/20 08:13:43;;;;;;;;;;;17.70;1.40;;;18.63;100.00;95472.26;656089;216;24811;-71
2022/08/20 08:16:23;;;;;;;;;;;17.70;1.40;;;18.69;100.00;95471.77;641158;215;24847;-70
2022/08/20 08:19:05;;;;;;;;;;;17.70;1.40;;;18.81;100.00;95472.34;652724;216;24814;-70
2022/08/20 08:21:46;;;;;;;;;;;17.80;1.40;;;18.87;100.00;95469.66;652023;216;24838;-70
2022/08/20 08:24:27;;;;;;;;;;;17.70;1.40;;;18.71;100.00;95472.05;653103;216;24836;-70
2022/08/20 08:27:09;;;;;;;;;;;17.70;1.40;;;18.71;100.00;95476.63;654384;216;24710;-70
2022/08/20 08:29:50;;;;;;;;;;;17.70;1.40;;;18.67;100.00;95481.08;654616;216;25059;-70
2022/08/20 08:32:31;;;;;;;;;;;17.80;1.40;;;18.67;100.00;95484.00;653639;216;25282;-70
2022/08/20 08:36:01;;;;;;;2.20;2.00;;;17.80;1.40;;;18.80;100.00;95487.13;646321;212;32182;-70
2022/08/20 08:38:43;;;;;;;2.45;2.35;;;17.90;1.40;;;18.87;100.00;95486.10;645715;216;31675;-70
2022/08/20 08:41:30;;;;;;;1.90;1.80;;;17.90;1.40;;;18.84;100.00;95491.05;647659;212;31566;-70
2022/08/20 08:44:11;;;;;;;2.15;1.95;;;17.90;1.40;;;18.99;100.00;95494.00;645988;212;31570;-71
2022/08/20 08:49:37;;;;;;;14.10;1.60;;;18.10;1.40;;;19.05;100.00;95497.01;645579;212;31838;-70
2022/08/20 08:52:21;;;;;;;3.62;2.80;;;18.10;1.40;;;19.02;100.00;95498.58;647463;216;42248;-70
2022/08/20 08:55:03;;;;;;;8.27;2.10;;;18.10;1.40;;;19.05;100.00;95501.42;619243;226;42647;-70
2022/08/20 08:57:45;;;;;;;1.53;1.43;;;18.20;1.40;;;19.02;100.00;95501.01;646588;216;31716;-70
2022/08/20 09:00:29;;;;;;;2.45;2.08;;;18.20;1.40;;;19.07;100.00;95499.89;647064;216;31592;-70
2022/08/20 09:03:11;;;;;;;4.22;2.53;;;18.20;1.40;;;19.11;100.00;95499.94;646270;216;31578;-72
2022/08/20 09:05:52;;;;;;;2.33;2.03;;;18.30;1.40;;;19.24;100.00;95503.34;645786;216;42219;-70
2022/08/20 09:08:34;;;;;;;3.10;1.50;;;18.40;1.40;;;19.32;100.00;95503.36;646378;216;31566;-70
2022/08/20 09:11:16;;;;;;;1.62;1.50;;;18.50;1.40;;;19.50;100.00;95502.41;646329;216;32116;-70
2022/08/20 09:13:58;;;;;;;2.10;1.80;;;18.50;1.40;;;19.73;100.00;95504.55;645842;216;31555;-70
2022/08/20 09:16:39;;;;;;;2.62;2.12;;;18.70;1.40;;;20.00;100.00;95504.31;635916;216;31725;-70
2022/08/20 09:19:24;;;;;;;3.33;2.30;;;19.00;1.40;;;20.14;100.00;95504.91;647004;216;31493;-70
2022/08/20 09:22:09;;;;;;;2.67;1.50;;;19.00;1.40;;;19.87;100.00;95509.20;645703;216;31761;-70
2022/08/20 09:24:50;;;;;;;3.70;2.43;;;18.90;1.40;;;19.79;100.00;95507.62;644375;212;31756;-70
2022/08/20 09:30:10;;;;;;;2.65;1.87;;;19.10;1.40;;;20.32;100.00;95499.94;646983;216;31627;-70
2022/08/20 09:32:52;;;;;;;3.30;2.40;;;19.40;1.40;;;20.29;100.00;95504.45;648822;216;31758;-70
2022/08/20 09:35:51;;;;;;;4.47;2.62;;;19.20;1.40;;;20.65;100.00;95505.23;647268;216;31654;-70
2022/08/20 09:38:33;;;;;;;3.70;2.95;;;19.50;1.40;;;20.64;100.00;95503.55;646554;216;31620;-71
2022/08/20 09:41:18;;;;;;;3.22;2.37;;;19.60;1.40;;;20.67;100.00;95501.38;645751;216;31584;-71
2022/08/20 09:44:00;;;;;;;6.68;3.03;;;19.70;1.40;;;20.89;100.00;95500.47;647099;212;31613;-70
2022/08/20 09:46:41;;;;;;;5.45;2.80;;;19.70;1.40;;;20.82;100.00;95497.77;648380;212;31582;-70
2022/08/20 09:49:23;;;;;;;3.87;2.92;;;19.50;1.40;;;20.81;100.00;95494.75;647333;216;31699;-71
2022/08/20 09:54:39;;;;;;;3.87;2.90;;;18.90;1.40;;;20.42;100.00;95488.34;646474;212;31815;-70
2022/08/20 09:57:21;;;;;;;4.37;2.80;;;19.00;1.40;;;20.36;100.00;95490.57;648056;216;31667;-70
2022/08/20 10:00:03;;;;;;;3.33;2.70;;;19.00;1.40;;;20.15;100.00;95490.82;647920;216;31691;-70
2022/08/20 10:02:45;;;;;;;3.08;2.78;;;18.90;1.40;;;19.88;100.00;95491.29;647433;212;32212;-70
2022/08/20 10:05:27;;;;;;;4.73;3.30;;;18.70;1.40;;;19.82;100.00;95487.39;647501;212;31648;-70
2022/08/20 10:08:10;;;;;;;4.68;2.60;;;18.70;1.40;;;19.83;100.00;95489.41;647672;212;31555;-70
2022/08/20 10:10:52;;;;;;;3.33;3.03;;;18.80;1.40;;;19.67;100.00;95490.38;642962;217;31917;-70
2022/08/20 10:13:34;;;;;;;3.27;2.97;;;18.90;1.40;;;20.22;100.00;95488.55;644903;216;31591;-70
2022/08/20 10:18:50;;;;;;;5.72;3.33;;;19.40;1.40;;;20.97;100.00;95490.10;646710;216;31914;-70
2022/08/20 10:21:31;;;;;;;3.53;2.95;;;19.80;1.40;;;20.91;100.00;95489.25;648506;216;31747;-70
2022/08/20 10:24:13;;;;;;;4.03;3.05;;;19.70;1.40;;;21.10;100.00;95489.78;646355;216;31659;-70
2022/08/20 10:26:56;;;;;;;3.85;2.95;;;19.70;1.40;;;20.90;100.00;95494.92;645105;212;31560;-70
2022/08/20 10:29:37;;;;;;;5.60;3.50;;;19.70;1.40;;;20.98;100.00;95498.49;647639;216;31540;-70
2022/08/20 10:32:19;;;;;;;4.40;3.83;;;19.70;1.40;;;21.18;100.00;95494.17;648015;216;31543;-70
2022/08/20 10:35:51;;;;;;;4.57;3.30;;;19.90;1.40;;;21.25;100.00;95493.56;645610;216;31571;-70
2022/08/20 10:38:33;;;;;;;3.45;3.15;;;19.80;1.40;;;21.12;100.00;95487.57;647140;216;31524;-69
2022/08/20 10:41:15;;;;;;;5.40;3.22;;;19.60;1.40;;;20.87;100.00;95483.86;647157;216;31542;-70
2022/08/20 10:43:58;;;;;;;3.28;2.97;;;19.30;1.40;;;20.64;100.00;95480.17;642828;216;33051;-70
2022/08/20 10:46:39;;;;;;;4.18;3.33;;;19.30;1.40;;;20.59;100.00;95476.02;619806;222;31883;-70
2022/08/20 10:49:21;;;;;;;3.83;3.25;;;19.20;1.40;;;20.28;100.00;95478.93;647258;212;31628;-70
2022/08/20 10:52:06;;;;;;;4.10;3.17;;;19.10;1.40;;;20.30;100.00;95481.27;645456;216;31563;-70
2022/08/20 10:55:13;;;;;;;3.80;3.17;;;19.00;1.40;;;20.47;100.00;95474.95;641758;215;31571;-70
2022/08/20 10:57:55;;;;;;;4.05;3.10;;;19.10;1.40;;;20.43;100.00;95475.56;646560;216;31565;-69
2022/08/20 11:00:37;;;;;;;4.15;3.12;;;19.10;1.40;;;20.51;100.00;95472.86;649641;216;31703;-70
2022/08/20 11:03:19;;;;;;;3.07;2.30;;;19.10;1.40;;;20.24;100.00;95479.17;648182;216;31597;-69
2022/08/20 11:06:00;;;;;;;2.60;2.40;;;18.90;1.40;;;19.99;100.00;95473.23;647543;216;31601;-71
2022/08/20 11:08:42;;;;;;;3.37;1.90;;;18.50;1.40;;;19.22;100.00;95479.09;645663;212;32034;-70
2022/08/20 11:11:24;;;;;;;3.50;2.10;;;18.00;1.40;;;18.76;100.00;95470.12;647514;212;42200;-71
2022/08/20 11:14:05;;;;;;;3.30;2.58;;;17.40;1.40;;;18.53;100.00;95471.33;617339;226;32080;-71
2022/08/20 11:16:50;;;;;;;3.03;2.30;;;17.20;1.40;;;18.45;100.00;95471.93;635005;212;31695;-71
2022/08/20 11:19:32;;;;;;;2.53;2.33;;;17.20;1.40;;;18.40;100.00;95463.86;644744;212;31538;-72
2022/08/20 11:22:14;;;;;;;1.85;1.75;;;17.20;1.40;;;18.66;100.00;95460.77;646931;212;31682;-71
2022/08/20 11:24:55;;;;;;;4.20;2.77;;;17.60;1.40;;;18.97;100.00;95456.70;646069;216;31656;-72
2022/08/20 11:27:37;;;;;;;1.27;1.17;;;17.80;1.40;;;18.94;100.00;95447.48;647468;216;32064;-71
2022/08/20 11:30:19;;;;;;;2.00;1.77;;;17.80;1.40;;;18.95;100.00;95452.51;648202;216;31539;-71
2022/08/20 11:35:51;;;;;;;1.60;1.48;;;17.80;1.40;;;19.06;100.00;95452.65;617712;222;32088;-70
2022/08/20 11:38:36;;;;;;;1.85;1.65;;;17.90;1.40;;;19.21;100.00;95455.79;647960;216;31565;-71
2022/08/20 11:41:18;;;;;;;3.30;1.92;;;18.00;1.40;;;19.43;100.00;95456.14;647802;216;31542;-70
2022/08/20 11:44:03;;;;;;;3.20;3.00;;;18.20;1.40;;;19.51;100.00;95457.73;645724;216;32242;-73
2022/08/20 11:46:44;;;;;;;3.92;2.25;;;18.40;1.40;;;19.66;100.00;95455.97;646034;212;31648;-70
2022/08/20 11:49:26;;;;;;;1.83;1.62;;;18.40;1.40;;;19.99;100.00;95455.27;646139;216;31588;-70
2022/08/20 11:52:11;;;;;;;2.72;2.53;;;18.60;1.40;;;20.14;100.00;95454.69;645955;216;31651;-72
2022/08/20 11:54:53;;;;;;;2.27;2.10;;;18.90;1.40;;;20.71;100.00;95461.70;645599;216;32145;-71
2022/08/20 11:57:34;;;;;;;2.87;2.58;;;19.20;1.40;;;20.73;100.00;95464.30;646494;216;31691;-70
2022/08/20 12:00:16;;;;;;;1.67;1.50;;;19.40;1.40;;;20.90;100.00;95468.21;645802;216;31702;-71
2022/08/20 12:02:58;;;;;;;2.87;1.52;;;19.60;1.40;;;20.93;100.00;95468.35;649291;216;35907;-71